createdAt,value
2019-02-07T00:00:18.466Z,62.10
2019-02-07T00:02:50.018Z,61.90
2019-02-07T00:05:21.485Z,62.00
2019-02-07T00:07:53.139Z,62.00
2019-02-07T00:10:24.589Z,61.90
2019-02-07T00:12:56.257Z,61.90
2019-02-07T00:15:27.649Z,62.10
2019-02-07T00:17:59.025Z,62.20
2019-02-07T00:20:31.305Z,62.20
2019-02-07T00:23:02.684Z,62.30
2019-02-07T00:25:34.064Z,62.30
2019-02-07T00:28:05.448Z,62.30
2019-02-07T00:30:37.135Z,62.30
2019-02-07T00:33:08.512Z,62.30
2019-02-07T00:35:40.058Z,62.10
2019-02-07T00:38:13.110Z,62.00
2019-02-07T00:40:44.520Z,61.50
2019-02-07T00:43:15.885Z,61.20
2019-02-07T00:45:47.257Z,61.00
2019-02-07T00:48:18.631Z,60.80
2019-02-07T00:50:50.393Z,60.60
2019-02-07T00:53:21.794Z,60.70
2019-02-07T00:55:53.238Z,60.80
2019-02-07T00:58:24.585Z,60.90
2019-02-07T01:00:55.997Z,60.80
2019-02-07T01:03:27.745Z,60.90
2019-02-07T01:05:59.128Z,60.80
2019-02-07T01:08:30.476Z,60.80
2019-02-07T01:11:01.916Z,60.70
2019-02-07T01:13:33.283Z,60.80
2019-02-07T01:16:05.396Z,60.80
2019-02-07T01:18:36.786Z,60.70
2019-02-07T01:21:08.185Z,60.70
2019-02-07T01:23:39.534Z,60.60
2019-02-07T01:26:11.041Z,60.70
2019-02-07T01:28:42.577Z,60.70
2019-02-07T01:31:13.969Z,60.70
2019-02-07T01:33:45.252Z,60.50
2019-02-07T01:36:16.641Z,60.50
2019-02-07T01:38:47.996Z,60.50
2019-02-07T01:41:19.765Z,60.50
2019-02-07T01:43:51.104Z,60.50
2019-02-07T01:46:22.540Z,60.60
2019-02-07T01:48:54.002Z,60.60
2019-02-07T01:51:25.364Z,60.70
2019-02-07T01:53:56.762Z,60.70
2019-02-07T01:56:28.136Z,60.70
2019-02-07T01:59:00.482Z,60.70
2019-02-07T02:01:31.852Z,60.80
2019-02-07T02:04:03.222Z,61.00
2019-02-07T02:06:34.648Z,61.00
2019-02-07T02:09:07.877Z,61.10
2019-02-07T02:11:39.265Z,61.00
2019-02-07T02:14:10.609Z,61.20
2019-02-07T02:16:42.110Z,61.40
2019-02-07T02:19:13.445Z,61.20
2019-02-07T02:21:44.882Z,61.20
2019-02-07T02:24:16.228Z,61.30
2019-02-07T02:26:47.569Z,61.40
2019-02-07T02:29:19.131Z,61.30
2019-02-07T02:31:50.520Z,61.40
2019-02-07T02:34:21.866Z,61.30
2019-02-07T02:36:53.293Z,61.30
2019-02-07T02:39:24.665Z,61.30
2019-02-07T02:41:56.097Z,61.30
2019-02-07T02:44:27.499Z,61.50
2019-02-07T02:46:58.830Z,61.50
2019-02-07T02:49:30.212Z,61.50
2019-02-07T02:52:01.606Z,61.60
2019-02-07T02:54:36.635Z,61.80
2019-02-07T02:57:08.178Z,61.80
2019-02-07T02:59:39.537Z,61.70
2019-02-07T03:02:38.498Z,61.90
2019-02-07T03:05:21.020Z,61.90
2019-02-07T03:08:11.508Z,61.90
2019-02-07T03:11:03.790Z,62.00
2019-02-07T03:14:09.405Z,61.90
2019-02-07T03:17:08.930Z,61.80
2019-02-07T03:19:58.030Z,61.70
2019-02-07T03:22:42.349Z,61.60
2019-02-07T03:25:47.708Z,61.50
2019-02-07T03:28:50.457Z,61.50
2019-02-07T03:31:39.467Z,61.30
2019-02-07T03:34:33.486Z,61.10
2019-02-07T03:37:16.346Z,60.70
2019-02-07T03:40:12.266Z,60.50
2019-02-07T03:43:14.527Z,60.30
2019-02-07T03:46:07.975Z,60.20
2019-02-07T03:48:57.371Z,60.00
2019-02-07T03:51:46.268Z,59.90
2019-02-07T03:54:35.437Z,59.80
2019-02-07T03:57:17.315Z,59.90
2019-02-07T04:00:06.580Z,59.80
2019-02-07T04:02:56.035Z,59.80
2019-02-07T04:05:44.886Z,59.70
2019-02-07T04:08:42.131Z,59.60
2019-02-07T04:11:32.589Z,59.60
2019-02-07T04:14:26.034Z,59.50
2019-02-07T04:17:15.175Z,59.40
2019-02-07T04:19:53.050Z,59.30
2019-02-07T04:22:41.933Z,59.30
2019-02-07T04:25:30.762Z,59.50
2019-02-07T04:28:10.079Z,59.50
2019-02-07T04:31:03.437Z,59.70
2019-02-07T04:33:54.212Z,59.50
2019-02-07T04:36:43.253Z,59.50
2019-02-07T04:39:42.719Z,59.40
2019-02-07T04:42:31.258Z,59.50
2019-02-07T04:45:29.455Z,59.50
2019-02-07T04:48:25.781Z,59.50
2019-02-07T04:51:14.702Z,59.40
2019-02-07T04:54:07.946Z,59.50
2019-02-07T04:57:13.289Z,59.40
2019-02-07T05:00:02.274Z,59.20
2019-02-07T05:02:53.811Z,59.20
2019-02-07T05:05:48.229Z,59.20
2019-02-07T05:08:45.501Z,59.20
2019-02-07T05:11:28.154Z,59.00
2019-02-07T05:14:30.607Z,59.10
2019-02-07T05:17:23.800Z,59.30
2019-02-07T05:20:14.221Z,59.50
2019-02-07T05:23:10.440Z,59.70
2019-02-07T05:26:09.723Z,59.80
2019-02-07T05:28:53.728Z,59.90
2019-02-07T05:31:47.513Z,59.90
2019-02-07T05:34:46.817Z,60.00
2019-02-07T05:37:25.036Z,60.10
2019-02-07T05:40:16.365Z,59.90
2019-02-07T05:43:09.635Z,60.00
2019-02-07T05:46:15.242Z,60.10
2019-02-07T05:49:04.422Z,60.10
2019-02-07T05:51:57.105Z,60.20
2019-02-07T05:54:59.200Z,60.20
2019-02-07T05:57:55.878Z,60.20
2019-02-07T06:00:52.369Z,60.00
2019-02-07T06:03:42.844Z,60.00
2019-02-07T06:06:41.653Z,59.90
2019-02-07T06:09:39.789Z,59.90
2019-02-07T06:12:27.854Z,60.00
2019-02-07T06:15:27.515Z,60.00
2019-02-07T06:18:17.951Z,59.80
2019-02-07T06:21:00.804Z,59.70
2019-02-07T06:23:49.617Z,59.70
2019-02-07T06:26:39.681Z,59.70
2019-02-07T06:29:33.081Z,59.70
2019-02-07T06:32:22.548Z,59.70
2019-02-07T06:35:18.863Z,59.50
2019-02-07T06:38:18.656Z,59.40
2019-02-07T06:41:11.906Z,59.40
2019-02-07T06:44:17.176Z,59.50
2019-02-07T06:47:13.030Z,59.50
2019-02-07T06:49:54.558Z,59.50
2019-02-07T06:52:37.145Z,59.40
2019-02-07T06:55:27.865Z,59.20
2019-02-07T06:58:17.313Z,59.30
2019-02-07T07:00:58.167Z,59.20
2019-02-07T07:04:03.545Z,59.20
2019-02-07T07:06:53.505Z,59.30
2019-02-07T07:09:44.166Z,59.40
2019-02-07T07:12:36.795Z,59.40
2019-02-07T07:15:40.504Z,59.40
2019-02-07T07:18:26.374Z,59.50
2019-02-07T07:21:13.701Z,59.40
2019-02-07T07:24:07.327Z,59.50
2019-02-07T07:27:12.988Z,59.50
2019-02-07T07:30:01.932Z,59.60
2019-02-07T07:32:56.728Z,59.60
2019-02-07T07:35:45.651Z,59.70
2019-02-07T07:38:42.247Z,59.70
2019-02-07T07:41:38.582Z,59.70
2019-02-07T07:44:29.213Z,59.70
2019-02-07T07:47:22.582Z,59.80
2019-02-07T07:50:10.267Z,59.90
2019-02-07T07:53:12.501Z,59.90
2019-02-07T07:56:01.452Z,60.00
2019-02-07T07:58:58.920Z,59.90
2019-02-07T08:01:47.906Z,60.00
2019-02-07T08:04:31.088Z,59.90
2019-02-07T08:07:19.674Z,59.80
2019-02-07T08:09:59.083Z,60.10
2019-02-07T08:12:55.601Z,60.00
2019-02-07T08:15:42.348Z,59.90
2019-02-07T08:18:34.945Z,59.80
2019-02-07T08:21:23.777Z,59.50
2019-02-07T08:24:23.677Z,59.40
2019-02-07T08:27:32.344Z,59.20
2019-02-07T08:30:36.204Z,59.10
2019-02-07T08:33:17.740Z,59.00
2019-02-07T08:36:07.857Z,58.90
2019-02-07T08:38:49.987Z,58.90
2019-02-07T08:41:33.163Z,59.00
2019-02-07T08:44:35.961Z,59.00
2019-02-07T08:47:29.266Z,59.00
2019-02-07T08:50:19.644Z,59.00
2019-02-07T08:53:15.920Z,58.90
2019-02-07T08:56:21.248Z,58.80
2019-02-07T08:59:12.668Z,59.00
2019-02-07T09:01:53.584Z,58.90
2019-02-07T09:04:35.399Z,58.90
2019-02-07T09:07:28.617Z,59.00
2019-02-07T09:10:19.107Z,59.20
2019-02-07T09:13:24.465Z,59.20
2019-02-07T09:16:22.397Z,59.30
2019-02-07T09:19:11.184Z,59.10
2019-02-07T09:22:00.207Z,59.20
2019-02-07T09:24:51.054Z,59.10
2019-02-07T09:27:48.137Z,58.90
2019-02-07T09:30:47.885Z,58.90
2019-02-07T09:33:31.781Z,58.80
2019-02-07T09:36:19.697Z,58.70
2019-02-07T09:39:13.549Z,58.60
2019-02-07T09:42:10.886Z,58.20
2019-02-07T09:45:08.382Z,58.00
2019-02-07T09:48:01.809Z,58.20
2019-02-07T09:51:07.521Z,58.10
2019-02-07T09:53:57.953Z,58.10
2019-02-07T09:56:54.220Z,58.10
2019-02-07T09:59:50.868Z,57.80
2019-02-07T10:02:28.732Z,57.80
2019-02-07T10:05:27.233Z,57.80
2019-02-07T10:08:14.363Z,57.80
2019-02-07T10:11:10.889Z,57.80
2019-02-07T10:14:01.442Z,57.70
2019-02-07T10:16:42.437Z,57.10
2019-02-07T10:19:31.410Z,57.10
2019-02-07T10:22:28.923Z,57.20
2019-02-07T10:25:17.858Z,57.60
2019-02-07T10:28:04.724Z,57.60
2019-02-07T10:30:46.892Z,57.90
2019-02-07T10:33:35.873Z,57.70
2019-02-07T10:36:35.897Z,57.50
2019-02-07T10:39:19.944Z,56.90
2019-02-07T10:42:28.637Z,57.00
2019-02-07T10:45:16.612Z,57.10
2019-02-07T10:48:05.448Z,57.00
2019-02-07T10:50:58.628Z,56.80
2019-02-07T10:53:39.858Z,56.70
2019-02-07T10:56:29.776Z,56.60
2019-02-07T10:59:18.769Z,56.60
2019-02-07T11:02:05.749Z,56.70
2019-02-07T11:05:08.182Z,56.90
2019-02-07T11:08:13.597Z,56.40
2019-02-07T11:11:11.529Z,56.20
2019-02-07T11:14:09.526Z,56.10
2019-02-07T11:16:58.388Z,56.20
2019-02-07T11:19:47.465Z,56.00
2019-02-07T11:22:40.748Z,56.00
2019-02-07T11:25:37.241Z,56.00
2019-02-07T11:28:24.389Z,56.40
2019-02-07T11:31:17.829Z,56.30
2019-02-07T11:34:10.973Z,56.30
2019-02-07T11:37:00.033Z,56.50
2019-02-07T11:39:47.041Z,56.30
2019-02-07T11:42:49.530Z,56.10
2019-02-07T11:45:45.874Z,56.00
2019-02-07T11:48:36.322Z,55.90
2019-02-07T11:51:27.276Z,55.70
2019-02-07T11:54:20.538Z,55.50
2019-02-07T11:57:06.002Z,55.30
2019-02-07T11:59:54.853Z,55.20
2019-02-07T12:02:45.548Z,55.20
2019-02-07T12:05:42.103Z,55.30
2019-02-07T12:08:50.898Z,55.40
2019-02-07T12:11:48.646Z,55.50
2019-02-07T12:14:47.880Z,55.50
2019-02-07T12:17:50.341Z,55.50
2019-02-07T12:20:41.313Z,55.40
2019-02-07T12:23:30.361Z,55.70
2019-02-07T12:26:19.708Z,55.70
2019-02-07T12:29:15.265Z,55.90
2019-02-07T12:32:02.853Z,56.00
2019-02-07T12:34:56.973Z,56.10
2019-02-07T12:37:46.137Z,56.30
2019-02-07T12:40:35.075Z,56.50
2019-02-07T12:43:24.210Z,56.60
2019-02-07T12:46:14.640Z,56.70
2019-02-07T12:49:03.649Z,56.80
2019-02-07T12:51:47.709Z,56.90
2019-02-07T12:54:36.601Z,57.20
2019-02-07T12:57:35.900Z,57.20
2019-02-07T13:00:20.213Z,57.40
2019-02-07T13:03:07.709Z,57.60
2019-02-07T13:05:50.625Z,57.80
2019-02-07T13:08:43.729Z,57.60
2019-02-07T13:11:21.901Z,57.50
2019-02-07T13:14:00.010Z,57.70
2019-02-07T13:16:59.542Z,57.80
2019-02-07T13:19:45.840Z,57.60
2019-02-07T13:22:36.411Z,57.60
2019-02-07T13:25:19.192Z,57.60
2019-02-07T13:28:11.668Z,57.60
2019-02-07T13:30:57.189Z,57.50
2019-02-07T13:33:37.039Z,57.20
2019-02-07T13:36:18.551Z,57.40
2019-02-07T13:39:07.654Z,58.00
2019-02-07T13:41:56.751Z,57.20
2019-02-07T13:44:44.780Z,57.30
2019-02-07T13:47:44.354Z,57.60
2019-02-07T13:50:43.192Z,57.30
2019-02-07T13:53:48.682Z,57.30
2019-02-07T13:56:38.729Z,57.50
2019-02-07T13:59:32.193Z,57.50
2019-02-07T14:02:33.071Z,57.60
2019-02-07T14:05:23.450Z,57.60
2019-02-07T14:08:38.182Z,57.90
2019-02-07T14:11:24.069Z,58.00
2019-02-07T14:14:11.869Z,58.10
2019-02-07T14:17:02.314Z,58.20
2019-02-07T14:20:04.642Z,58.20
2019-02-07T14:22:57.833Z,58.50
2019-02-07T14:25:46.974Z,58.90
2019-02-07T14:28:30.429Z,59.30
2019-02-07T14:31:19.797Z,59.50
2019-02-07T14:34:10.334Z,59.70
2019-02-07T14:37:03.801Z,59.80
2019-02-07T14:39:52.662Z,59.80
2019-02-07T14:42:52.276Z,59.70
2019-02-07T14:45:42.910Z,59.80
2019-02-07T14:48:24.544Z,59.50
2019-02-07T14:50:59.348Z,59.60
2019-02-07T14:53:31.496Z,59.80
2019-02-07T14:56:02.924Z,60.00
2019-02-07T14:58:34.352Z,60.10
2019-02-07T15:01:05.809Z,60.40
2019-02-07T15:03:37.223Z,60.60
2019-02-07T15:06:08.629Z,61.90
2019-02-07T15:08:39.925Z,61.20
2019-02-07T15:11:11.285Z,61.10
2019-02-07T15:13:42.880Z,61.00
2019-02-07T15:16:14.240Z,61.20
2019-02-07T15:18:46.248Z,61.20
2019-02-07T15:21:17.880Z,61.20
2019-02-07T15:23:49.232Z,61.20
2019-02-07T15:26:20.630Z,61.20
2019-02-07T15:28:52.001Z,61.20
2019-02-07T15:31:23.389Z,61.20
2019-02-07T15:33:54.836Z,61.10
2019-02-07T15:36:26.360Z,61.20
2019-02-07T15:38:57.765Z,61.20
2019-02-07T15:41:29.292Z,61.30
2019-02-07T15:44:00.718Z,61.30
2019-02-07T15:46:32.304Z,61.30
2019-02-07T15:49:04.549Z,61.40
2019-02-07T15:51:35.912Z,61.50
2019-02-07T15:54:07.777Z,61.70
2019-02-07T15:56:39.142Z,61.80
2019-02-07T15:59:35.578Z,61.80
2019-02-07T16:02:23.370Z,62.00
2019-02-07T16:04:55.247Z,62.10
2019-02-07T16:07:27.644Z,61.90
2019-02-07T16:09:59.020Z,61.90
2019-02-07T16:12:30.674Z,62.10
2019-02-07T16:15:02.138Z,62.10
2019-02-07T16:17:33.422Z,62.20
2019-02-07T16:20:08.128Z,62.20
2019-02-07T16:22:39.484Z,62.20
2019-02-07T16:25:11.602Z,62.30
2019-02-07T16:27:43.144Z,62.50
2019-02-07T16:30:15.637Z,62.60
2019-02-07T16:32:46.997Z,63.00
2019-02-07T16:35:18.809Z,63.00
2019-02-07T16:37:51.457Z,63.10
2019-02-07T16:40:23.172Z,63.40
2019-02-07T16:42:55.593Z,63.70
2019-02-07T16:45:27.632Z,63.60
2019-02-07T16:47:59.036Z,63.60
2019-02-07T16:50:30.852Z,63.90
2019-02-07T16:53:02.224Z,63.90
2019-02-07T16:55:33.697Z,63.90
2019-02-07T16:58:05.620Z,63.80
2019-02-07T17:00:37.860Z,63.90
2019-02-07T17:03:09.252Z,63.70
2019-02-07T17:05:40.903Z,63.80
2019-02-07T17:08:12.504Z,63.60
2019-02-07T17:10:44.069Z,63.70
2019-02-07T17:13:15.449Z,63.70
2019-02-07T17:15:47.002Z,63.70
2019-02-07T17:18:18.361Z,63.60
2019-02-07T17:20:53.334Z,63.70
2019-02-07T17:23:24.846Z,63.50
2019-02-07T17:25:56.620Z,63.40
2019-02-07T17:28:28.270Z,63.50
2019-02-07T17:30:59.676Z,63.40
2019-02-07T17:33:31.478Z,63.40
2019-02-07T17:36:02.996Z,63.40
2019-02-07T17:38:42.132Z,63.30
2019-02-07T17:41:13.792Z,63.20
2019-02-07T17:43:45.220Z,63.10
2019-02-07T17:46:16.625Z,63.00
2019-02-07T17:48:48.044Z,63.10
2019-02-07T17:51:23.416Z,63.00
2019-02-07T17:53:53.518Z,62.80
2019-02-07T17:56:25.724Z,62.80
2019-02-07T17:58:58.336Z,62.90
2019-02-07T18:01:29.816Z,62.90
2019-02-07T18:04:10.114Z,63.00
2019-02-07T18:06:44.831Z,63.00
2019-02-07T18:09:16.464Z,63.00
2019-02-07T18:11:48.052Z,63.00
2019-02-07T18:14:24.187Z,62.90
2019-02-07T18:16:55.670Z,62.80
2019-02-07T18:19:34.047Z,62.60
2019-02-07T18:22:05.902Z,62.70
2019-02-07T18:24:37.407Z,62.70
2019-02-07T18:27:08.796Z,62.80
2019-02-07T18:29:40.277Z,62.80
2019-02-07T18:32:11.665Z,62.90
2019-02-07T18:34:43.055Z,63.00
2019-02-07T18:37:14.361Z,63.00
2019-02-07T18:39:46.105Z,63.10
2019-02-07T18:42:18.779Z,63.20
2019-02-07T18:44:50.200Z,63.30
2019-02-07T18:47:21.842Z,63.20
2019-02-07T18:49:53.131Z,63.30
2019-02-07T18:52:28.420Z,63.40
2019-02-07T18:55:00.291Z,63.50
2019-02-07T18:57:31.995Z,63.60
2019-02-07T19:00:07.701Z,63.60
2019-02-07T19:02:39.453Z,63.60
2019-02-07T19:05:11.849Z,63.60
2019-02-07T19:07:43.365Z,63.70
2019-02-07T19:10:16.821Z,63.70
2019-02-07T19:12:48.607Z,63.80
2019-02-07T19:15:23.489Z,63.90
2019-02-07T19:17:55.229Z,64.00
2019-02-07T19:20:26.719Z,64.20
2019-02-07T19:22:58.453Z,64.40
2019-02-07T19:25:32.216Z,64.30
2019-02-07T19:28:07.474Z,64.30
2019-02-07T19:30:39.054Z,64.30
2019-02-07T19:33:10.448Z,64.30
2019-02-07T19:35:41.817Z,65.20
2019-02-07T19:38:16.387Z,64.30
2019-02-07T19:40:47.753Z,64.30
2019-02-07T19:43:19.522Z,64.20
2019-02-07T19:45:50.947Z,64.30
2019-02-07T19:48:22.827Z,64.30
2019-02-07T19:50:54.414Z,64.20
2019-02-07T19:53:28.893Z,64.40
2019-02-07T19:56:00.373Z,64.30
2019-02-07T19:58:31.697Z,64.30
2019-02-07T20:01:03.593Z,64.40
2019-02-07T20:03:35.040Z,64.50
2019-02-07T20:06:07.374Z,64.60
2019-02-07T20:08:42.253Z,64.70
2019-02-07T20:11:13.706Z,64.70
2019-02-07T20:13:45.722Z,64.80
2019-02-07T20:16:17.976Z,64.80
2019-02-07T20:18:51.358Z,64.80
2019-02-07T20:21:25.017Z,64.80
2019-02-07T20:24:01.755Z,64.80
2019-02-07T20:26:35.189Z,65.00
2019-02-07T20:29:07.682Z,65.00
2019-02-07T20:31:39.942Z,65.00
2019-02-07T20:34:12.596Z,65.10
2019-02-07T20:36:50.089Z,65.20
2019-02-07T20:39:21.574Z,65.20
2019-02-07T20:41:53.308Z,65.70
2019-02-07T20:44:24.688Z,66.10
2019-02-07T20:46:56.213Z,66.10
2019-02-07T20:49:29.054Z,66.30
2019-02-07T20:52:00.397Z,66.30
2019-02-07T20:54:31.877Z,66.30
2019-02-07T20:57:06.421Z,66.30
2019-02-07T20:59:37.809Z,67.00
2019-02-07T21:02:10.437Z,66.10
2019-02-07T21:04:41.833Z,66.00
2019-02-07T21:07:13.189Z,65.90
2019-02-07T21:09:44.824Z,65.70
2019-02-07T21:12:16.189Z,65.60
2019-02-07T21:14:47.553Z,65.50
2019-02-07T21:17:19.134Z,65.40
2019-02-07T21:19:50.840Z,65.30
2019-02-07T21:22:22.680Z,65.30
2019-02-07T21:24:53.972Z,65.50
2019-02-07T21:27:25.248Z,65.40
2019-02-07T21:29:56.624Z,65.50
2019-02-07T21:32:28.063Z,65.40
2019-02-07T21:34:59.465Z,65.40
2019-02-07T21:37:31.209Z,65.30
2019-02-07T21:40:02.876Z,65.50
2019-02-07T21:42:34.264Z,65.40
2019-02-07T21:45:06.500Z,65.30
2019-02-07T21:47:37.910Z,65.30
2019-02-07T21:50:12.869Z,65.30
2019-02-07T21:52:44.205Z,65.30
2019-02-07T21:55:17.029Z,65.30
2019-02-07T21:57:48.629Z,65.50
2019-02-07T22:00:28.657Z,65.50
2019-02-07T22:03:00.029Z,65.50
2019-02-07T22:05:31.454Z,65.30
2019-02-07T22:08:03.322Z,65.30
2019-02-07T22:10:34.764Z,65.30
2019-02-07T22:13:06.798Z,65.20
2019-02-07T22:15:38.201Z,65.20
2019-02-07T22:18:10.319Z,65.20
2019-02-07T22:20:41.729Z,65.20
2019-02-07T22:23:13.093Z,65.20
2019-02-07T22:25:44.508Z,65.40
2019-02-07T22:28:15.884Z,65.50
2019-02-07T22:30:47.594Z,65.40
2019-02-07T22:33:18.949Z,65.50
2019-02-07T22:35:51.295Z,65.50
2019-02-07T22:38:23.653Z,65.50
2019-02-07T22:40:55.205Z,65.50
2019-02-07T22:43:26.665Z,66.40
2019-02-07T22:45:58.009Z,65.70
2019-02-07T22:48:29.467Z,65.50
2019-02-07T22:51:01.077Z,65.70
2019-02-07T22:53:32.917Z,65.70
2019-02-07T22:56:04.473Z,65.70
2019-02-07T22:58:35.743Z,65.70
2019-02-07T23:01:20.012Z,65.80
2019-02-07T23:03:53.613Z,65.80
2019-02-07T23:06:26.100Z,65.80
2019-02-07T23:08:57.713Z,65.80
2019-02-07T23:11:29.185Z,65.80
2019-02-07T23:14:00.700Z,65.90
2019-02-07T23:16:32.873Z,65.90
2019-02-07T23:19:06.361Z,66.00
2019-02-07T23:21:37.809Z,66.00
2019-02-07T23:24:09.741Z,66.00
2019-02-07T23:26:41.146Z,66.00
2019-02-07T23:29:12.717Z,66.00
2019-02-07T23:31:44.472Z,66.00
2019-02-07T23:34:15.821Z,66.10
2019-02-07T23:36:48.065Z,66.10
2019-02-07T23:39:19.444Z,66.10
2019-02-07T23:41:51.224Z,66.10
2019-02-07T23:44:22.571Z,66.10
2019-02-07T23:46:53.984Z,66.00
2019-02-07T23:49:25.336Z,65.90
2019-02-07T23:51:56.573Z,65.80
2019-02-07T23:54:30.002Z,65.70
2019-02-07T23:57:01.405Z,65.60
2019-02-07T23:59:32.753Z,65.70
